createdAt,value
2018-09-22T00:00:51.381Z,13.10
2018-09-22T00:03:19.761Z,13.10
2018-09-22T00:05:47.696Z,13.10
2018-09-22T00:08:15.383Z,13.20
2018-09-22T00:10:42.973Z,12.60
2018-09-22T00:13:10.605Z,11.90
2018-09-22T00:15:38.234Z,11.50
2018-09-22T00:18:05.957Z,11.10
2018-09-22T00:20:33.538Z,10.90
2018-09-22T00:23:01.100Z,10.80
2018-09-22T00:25:28.766Z,10.70
2018-09-22T00:27:56.344Z,10.60
2018-09-22T00:30:23.966Z,10.60
2018-09-22T00:32:51.547Z,10.50
2018-09-22T00:35:19.148Z,10.50
2018-09-22T00:37:46.743Z,10.50
2018-09-22T00:40:14.332Z,10.50
2018-09-22T00:42:41.926Z,10.50
2018-09-22T00:45:09.527Z,10.50
2018-09-22T00:47:37.081Z,10.50
2018-09-22T00:50:04.677Z,10.60
2018-09-22T00:52:32.309Z,10.60
2018-09-22T00:54:59.879Z,10.60
2018-09-22T00:57:27.490Z,10.60
2018-09-22T00:59:55.113Z,10.60
2018-09-22T01:02:22.677Z,10.70
2018-09-22T01:04:50.253Z,10.70
2018-09-22T01:07:17.830Z,10.70
2018-09-22T01:09:45.392Z,10.70
2018-09-22T01:12:12.946Z,10.60
2018-09-22T01:14:40.509Z,10.60
2018-09-22T01:17:08.097Z,10.70
2018-09-22T01:19:35.665Z,10.70
2018-09-22T01:22:03.245Z,10.70
2018-09-22T01:24:30.834Z,10.80
2018-09-22T01:26:58.413Z,10.80
2018-09-22T01:29:25.990Z,10.70
2018-09-22T01:31:53.638Z,10.70
2018-09-22T01:34:21.270Z,10.60
2018-09-22T01:36:49.020Z,10.50
2018-09-22T01:39:16.577Z,10.40
2018-09-22T01:41:44.205Z,10.30
2018-09-22T06:54:02.980Z,13.10
2018-09-22T06:56:30.612Z,13.10
2018-09-22T06:58:58.172Z,13.10
2018-09-22T07:01:25.765Z,13.20
2018-09-22T07:03:53.446Z,13.20
2018-09-22T07:06:21.090Z,13.30
2018-09-22T07:08:48.646Z,13.40
2018-09-22T07:11:16.190Z,13.60
2018-09-22T07:13:43.832Z,13.80
2018-09-22T07:16:11.437Z,13.90
2018-09-22T07:18:38.982Z,14.00
2018-09-22T07:21:07.679Z,14.20
2018-09-22T07:23:35.339Z,14.80
2018-09-22T07:26:03.212Z,15.30
2018-09-22T07:28:30.804Z,15.30
2018-09-22T07:30:58.698Z,15.10
2018-09-22T07:33:26.294Z,15.20
2018-09-22T07:35:53.859Z,15.20
2018-09-22T07:38:21.557Z,15.40
2018-09-22T07:40:49.257Z,16.30
2018-09-22T07:43:17.606Z,17.10
2018-09-22T07:45:45.266Z,17.70
2018-09-22T07:48:13.743Z,18.30
2018-09-22T07:50:41.342Z,18.90
2018-09-22T07:53:08.944Z,19.40
2018-09-22T07:55:36.564Z,19.70
2018-09-22T07:58:04.908Z,19.60
2018-09-22T08:00:32.664Z,19.80
2018-09-22T08:03:00.183Z,20.90
2018-09-22T08:05:27.729Z,21.80
2018-09-22T08:07:55.969Z,21.50
2018-09-22T08:10:24.162Z,21.10
2018-09-22T08:12:51.864Z,20.30
2018-09-22T08:15:19.522Z,19.80
2018-09-22T08:17:47.234Z,19.30
2018-09-22T08:20:14.839Z,18.80
2018-09-22T08:22:42.462Z,18.90
2018-09-22T08:25:10.068Z,19.20
2018-09-22T08:27:41.735Z,19.80
2018-09-22T08:30:09.418Z,20.30
2018-09-22T08:32:37.079Z,20.50
2018-09-22T08:35:04.730Z,21.00
2018-09-22T08:37:32.332Z,21.60
2018-09-22T08:39:59.961Z,22.10
2018-09-22T08:42:27.525Z,22.70
2018-09-22T08:44:55.962Z,22.50
2018-09-22T08:47:23.607Z,21.40
2018-09-22T08:49:51.158Z,21.10
2018-09-22T08:52:19.006Z,20.90
2018-09-22T08:54:46.653Z,20.90
2018-09-22T08:57:14.243Z,21.20
2018-09-22T08:59:41.929Z,21.80
2018-09-22T09:02:09.613Z,22.20
2018-09-22T09:04:37.197Z,22.30
2018-09-22T09:07:04.989Z,22.40
2018-09-22T09:09:32.603Z,22.70
2018-09-22T09:12:00.266Z,23.00
2018-09-22T09:14:27.924Z,23.50
2018-09-22T09:16:55.627Z,24.60
2018-09-22T09:19:23.185Z,25.70
2018-09-22T09:21:50.790Z,26.30
2018-09-22T09:24:18.426Z,26.60
2018-09-22T09:26:46.070Z,26.80
2018-09-22T09:29:13.779Z,26.60
2018-09-22T09:31:41.361Z,26.00
2018-09-22T09:34:08.917Z,25.40
2018-09-22T09:36:36.506Z,24.90
2018-09-22T09:39:04.709Z,24.60
2018-09-22T09:41:32.438Z,24.70
2018-09-22T09:44:00.046Z,24.70
2018-09-22T09:46:27.820Z,24.70
2018-09-22T09:48:55.479Z,23.90
2018-09-22T09:51:23.104Z,23.20
2018-09-22T09:53:50.752Z,22.60
2018-09-22T09:56:30.461Z,22.10
2018-09-22T09:58:58.199Z,21.80
2018-09-22T10:01:25.874Z,22.00
2018-09-22T10:04:00.319Z,22.50
2018-09-22T10:06:27.994Z,22.80
2018-09-22T10:08:55.593Z,22.80
2018-09-22T10:11:23.298Z,22.90
2018-09-22T10:13:51.023Z,23.60
2018-09-22T10:16:18.672Z,24.20
2018-09-22T10:18:46.311Z,24.60
2018-09-22T10:21:13.936Z,25.30
2018-09-22T10:23:41.523Z,25.70
2018-09-22T10:26:09.144Z,25.90
2018-09-22T10:31:36.321Z,26.70
2018-09-22T10:34:04.466Z,26.70
2018-09-22T10:36:32.081Z,26.60
2018-09-22T10:38:59.729Z,26.60
2018-09-22T10:41:27.376Z,26.60
2018-09-22T10:43:55.026Z,26.70
2018-09-22T10:46:23.055Z,26.20
2018-09-22T10:48:50.994Z,25.40
2018-09-22T10:51:18.672Z,24.40
2018-09-22T10:53:46.343Z,23.70
2018-09-22T10:56:14.143Z,23.20
2018-09-22T10:58:45.470Z,22.70
2018-09-22T11:01:13.186Z,22.30
2018-09-22T11:03:40.829Z,21.90
2018-09-22T11:06:08.424Z,21.60
2018-09-22T11:08:36.077Z,21.40
2018-09-22T11:11:03.765Z,21.00
2018-09-22T11:13:31.407Z,20.70
2018-09-22T11:15:59.020Z,20.40
2018-09-22T11:18:26.608Z,20.20
2018-09-22T11:20:54.304Z,19.90
2018-09-22T11:23:21.982Z,19.90
2018-09-22T11:25:49.631Z,19.70
2018-09-22T11:28:17.234Z,19.70
2018-09-22T11:30:45.091Z,19.70
2018-09-22T11:33:12.728Z,19.70
2018-09-22T11:35:40.397Z,19.70
2018-09-22T11:38:08.070Z,19.70
2018-09-22T11:40:35.715Z,19.80
2018-09-22T11:43:03.492Z,20.00
2018-09-22T11:45:31.130Z,20.20
2018-09-22T11:47:58.821Z,20.30
2018-09-22T11:50:26.415Z,20.30
2018-09-22T11:52:54.195Z,20.40
2018-09-22T11:57:56.178Z,20.10
2018-09-22T12:00:23.881Z,20.00
2018-09-22T12:02:51.526Z,20.00
2018-09-22T12:05:19.142Z,19.90
2018-09-22T12:07:46.736Z,19.90
2018-09-22T12:10:14.351Z,20.00
2018-09-22T12:12:41.979Z,19.90
2018-09-22T12:15:09.625Z,19.70
2018-09-22T12:17:37.208Z,19.50
2018-09-22T12:20:04.936Z,19.40
2018-09-22T12:22:32.630Z,19.30
2018-09-22T12:25:03.476Z,19.20
2018-09-22T12:27:31.116Z,19.10
2018-09-22T12:29:58.777Z,18.90
2018-09-22T12:32:35.141Z,18.80
2018-09-22T12:35:02.731Z,18.60
2018-09-22T12:37:30.318Z,18.70
2018-09-22T12:39:57.957Z,18.50
2018-09-22T12:42:25.521Z,18.50
2018-09-22T12:44:53.148Z,18.40
2018-09-22T12:47:20.769Z,18.40
2018-09-22T12:49:48.376Z,18.20
2018-09-22T12:52:15.980Z,18.10
2018-09-22T12:54:43.571Z,17.90
2018-09-22T12:57:11.241Z,18.00
2018-09-22T12:59:38.841Z,17.60
2018-09-22T13:02:06.467Z,17.50
2018-09-22T13:04:34.054Z,17.50
2018-09-22T13:07:01.698Z,17.50
2018-09-22T13:09:29.313Z,17.50
2018-09-22T13:11:56.964Z,17.50
2018-09-22T13:14:24.586Z,17.60
2018-09-22T13:16:52.487Z,17.60
2018-09-22T13:19:20.166Z,17.60
2018-09-22T13:21:47.778Z,17.60
2018-09-22T13:24:15.405Z,17.50
2018-09-22T13:26:43.044Z,17.60
2018-09-22T13:29:10.670Z,17.60
2018-09-22T13:31:38.305Z,17.60
2018-09-22T13:34:05.985Z,17.50
2018-09-22T13:36:33.622Z,17.50
2018-09-22T13:39:01.269Z,17.40
2018-09-22T13:41:28.897Z,17.20
2018-09-22T13:43:56.547Z,17.10
2018-09-22T13:46:24.182Z,17.00
2018-09-22T13:48:51.861Z,17.00
2018-09-22T13:51:19.685Z,16.90
2018-09-22T13:53:47.331Z,16.80
2018-09-22T13:56:15.018Z,16.60
2018-09-22T13:58:42.667Z,16.30
2018-09-22T14:01:10.357Z,16.10
2018-09-22T14:03:37.956Z,15.80
2018-09-22T14:06:05.630Z,15.40
2018-09-22T14:57:46.641Z,14.00
2018-09-22T15:00:15.444Z,13.80
2018-09-22T15:02:43.085Z,13.80
2018-09-22T15:05:11.801Z,13.80
2018-09-22T15:07:40.137Z,13.70
2018-09-22T15:10:07.956Z,13.80
2018-09-22T15:12:36.281Z,13.80
2018-09-22T15:15:06.991Z,13.70
2018-09-22T15:17:35.230Z,13.60
2018-09-22T15:20:02.884Z,13.50
2018-09-22T15:22:31.309Z,13.40
2018-09-22T15:25:12.613Z,13.30
2018-09-22T15:27:40.424Z,13.20
2018-09-22T15:30:08.205Z,13.20
2018-09-22T15:32:36.802Z,13.10
2018-09-22T15:35:05.092Z,13.10
2018-09-22T15:37:32.756Z,13.10
2018-09-22T15:40:00.417Z,13.20
2018-09-22T15:42:28.600Z,13.20
2018-09-22T15:45:59.335Z,13.20
2018-09-22T15:48:27.293Z,13.20
2018-09-22T15:50:55.470Z,13.20
2018-09-22T15:53:23.114Z,13.20
2018-09-22T15:55:51.864Z,13.20
2018-09-22T15:58:19.563Z,13.10
2018-09-22T16:00:47.220Z,13.00
2018-09-22T16:03:14.978Z,13.00
2018-09-22T16:05:42.718Z,12.90
2018-09-22T16:08:10.452Z,12.80
2018-09-22T16:10:38.017Z,12.70
2018-09-22T16:13:05.449Z,12.60
2018-09-22T16:15:33.106Z,12.60
2018-09-22T16:18:00.665Z,12.50
2018-09-22T16:20:28.262Z,12.40
2018-09-22T16:22:55.864Z,12.30
2018-09-22T16:25:24.389Z,12.20
2018-09-22T16:27:52.029Z,12.20
2018-09-22T16:30:19.683Z,12.20
2018-09-22T16:32:49.285Z,12.10
2018-09-22T16:35:16.998Z,12.10
2018-09-22T16:37:44.610Z,12.00
2018-09-22T16:40:12.209Z,11.80
2018-09-22T16:42:39.812Z,11.50
2018-09-22T16:45:07.482Z,11.30
2018-09-22T16:47:35.160Z,11.10
2018-09-22T16:50:02.879Z,10.90
2018-09-22T16:52:30.440Z,10.80
2018-09-22T16:54:58.098Z,10.70
2018-09-22T16:57:25.697Z,10.70
2018-09-22T16:59:53.339Z,10.70
2018-09-22T17:02:21.022Z,10.60
2018-09-22T17:04:48.624Z,10.60
2018-09-22T17:07:16.198Z,10.60
2018-09-22T17:09:43.825Z,10.60
2018-09-22T17:12:11.543Z,10.50
2018-09-22T17:14:39.258Z,10.50
2018-09-22T17:17:07.183Z,10.50
2018-09-22T17:19:34.786Z,10.50
2018-09-22T17:22:02.413Z,10.40
2018-09-22T17:24:30.005Z,10.40
2018-09-22T17:26:57.669Z,10.40
2018-09-22T17:29:25.366Z,10.40
2018-09-22T17:31:53.293Z,10.40
2018-09-22T17:34:21.080Z,10.40
2018-09-22T17:36:48.797Z,10.40
2018-09-22T17:39:16.574Z,10.40
2018-09-22T17:41:44.379Z,10.40
2018-09-22T17:44:12.118Z,10.40
2018-09-22T17:46:39.796Z,10.40
2018-09-22T17:49:07.399Z,10.40
2018-09-22T17:51:35.057Z,10.40
2018-09-22T17:54:02.866Z,10.40
2018-09-22T17:56:30.516Z,10.40
2018-09-22T17:58:58.181Z,10.50
2018-09-22T18:01:25.940Z,10.50
2018-09-22T18:03:53.602Z,10.50
2018-09-22T18:06:21.258Z,10.50
2018-09-22T18:08:48.973Z,10.50
2018-09-22T18:11:16.576Z,10.50
2018-09-22T18:13:44.160Z,10.50
2018-09-22T18:16:12.193Z,10.60
2018-09-22T18:18:39.785Z,10.60
2018-09-22T18:21:07.957Z,10.50
2018-09-22T18:23:35.726Z,10.50
2018-09-22T18:26:06.765Z,10.50
2018-09-22T18:28:34.509Z,10.50
2018-09-22T18:31:02.247Z,10.50
2018-09-22T18:33:29.957Z,10.60
2018-09-22T18:35:57.815Z,10.60
2018-09-22T18:38:25.500Z,10.60
2018-09-22T18:40:53.326Z,10.60
2018-09-22T18:43:20.949Z,10.60
2018-09-22T18:45:48.654Z,10.50
2018-09-22T18:48:16.321Z,10.50
2018-09-22T18:50:44.081Z,10.50
2018-09-22T18:53:18.455Z,10.60
2018-09-22T18:55:46.169Z,10.50
2018-09-22T18:58:13.803Z,10.50
2018-09-22T19:00:41.451Z,10.50
2018-09-22T19:03:09.272Z,10.50
2018-09-22T19:05:36.918Z,10.60
2018-09-22T19:08:04.855Z,10.60
2018-09-22T19:10:32.481Z,10.50
2018-09-22T19:13:01.085Z,10.60
2018-09-22T19:15:44.169Z,10.60
2018-09-22T19:18:30.382Z,10.60
2018-09-22T19:21:25.822Z,10.60
2018-09-22T19:23:57.130Z,10.60
2018-09-22T19:26:28.224Z,10.60
2018-09-22T19:29:03.481Z,10.60
2018-09-22T19:31:39.877Z,10.70
2018-09-22T19:34:13.612Z,10.60
2018-09-22T19:36:45.657Z,10.60
2018-09-22T19:39:17.895Z,10.60
2018-09-22T19:41:52.595Z,10.50
2018-09-22T19:44:25.890Z,10.60
2018-09-22T19:47:00.108Z,10.50
2018-09-22T19:49:31.669Z,10.60
2018-09-22T19:52:03.161Z,10.50
2018-09-22T19:54:31.609Z,10.50
2018-09-22T19:56:59.285Z,10.60
2018-09-22T19:59:26.924Z,10.60
2018-09-22T20:01:55.169Z,10.60
2018-09-22T20:04:22.820Z,10.60
2018-09-22T20:06:51.797Z,10.60
2018-09-22T20:09:19.408Z,10.60
2018-09-22T20:11:47.102Z,10.60
2018-09-22T20:14:15.926Z,10.60
2018-09-22T20:16:43.699Z,10.60
2018-09-22T20:19:11.479Z,10.60
2018-09-22T20:21:40.571Z,10.60
2018-09-22T20:24:09.344Z,10.50
2018-09-22T20:26:36.919Z,10.50
2018-09-22T20:29:04.611Z,10.50
2018-09-22T20:31:32.323Z,10.50
2018-09-22T20:33:59.928Z,10.50
2018-09-22T20:36:27.574Z,10.50
2018-09-22T20:38:55.209Z,10.50
2018-09-22T20:41:22.797Z,10.50
2018-09-22T20:43:50.440Z,10.50
2018-09-22T20:46:18.331Z,10.50
2018-09-22T20:48:46.414Z,10.50
2018-09-22T20:51:14.046Z,10.50
2018-09-22T20:53:43.279Z,10.50
2018-09-22T20:56:12.275Z,10.50
2018-09-22T20:58:40.120Z,10.50
2018-09-22T21:01:08.489Z,10.50
2018-09-22T21:03:36.061Z,10.50
2018-09-22T21:06:03.737Z,10.50
2018-09-22T21:08:34.830Z,10.50
2018-09-22T21:11:03.183Z,10.40
2018-09-22T21:13:30.757Z,10.40
2018-09-22T21:15:58.462Z,10.40
2018-09-22T21:18:26.057Z,10.40
2018-09-22T21:20:53.768Z,10.40
2018-09-22T21:23:25.426Z,10.40
2018-09-22T21:25:53.085Z,10.40
2018-09-22T21:28:20.656Z,10.30
2018-09-22T21:30:48.335Z,10.30
2018-09-22T21:33:15.895Z,10.30
2018-09-22T21:35:44.232Z,10.30
2018-09-22T21:38:11.920Z,10.30
2018-09-22T21:40:40.056Z,10.30
2018-09-22T21:43:07.704Z,10.30
2018-09-22T21:45:35.285Z,10.30
2018-09-22T21:48:02.968Z,10.30
2018-09-22T21:50:36.960Z,10.30
2018-09-22T21:53:04.709Z,10.30
2018-09-22T21:55:32.325Z,10.30
2018-09-22T21:58:00.062Z,10.40
2018-09-22T22:00:28.422Z,10.40
2018-09-22T22:02:56.029Z,10.30
2018-09-22T22:05:23.677Z,10.30
2018-09-22T22:07:51.342Z,10.30
2018-09-22T22:10:37.230Z,10.30
2018-09-22T22:13:04.891Z,10.30
2018-09-22T22:15:32.558Z,10.30
2018-09-22T22:18:00.149Z,10.30
2018-09-22T22:20:27.732Z,10.30
2018-09-22T22:22:55.335Z,10.30
2018-09-22T22:25:22.936Z,10.30
2018-09-22T22:27:50.566Z,10.30
2018-09-22T22:30:24.877Z,10.30
2018-09-22T22:32:52.491Z,10.30
2018-09-22T22:35:20.117Z,10.30
2018-09-22T22:37:47.732Z,10.30
2018-09-22T22:40:15.303Z,10.30
2018-09-22T22:42:42.902Z,10.30
2018-09-22T22:45:10.570Z,10.30
2018-09-22T22:47:38.162Z,10.30
2018-09-22T22:50:05.912Z,10.30
2018-09-22T22:52:33.547Z,10.30
2018-09-22T22:55:01.113Z,10.30
2018-09-22T22:57:28.719Z,10.30
2018-09-22T22:59:56.364Z,10.30
2018-09-22T23:02:23.946Z,10.30
2018-09-22T23:04:51.704Z,10.40
2018-09-22T23:07:19.351Z,10.40
2018-09-22T23:09:47.009Z,10.40
2018-09-22T23:12:14.627Z,10.30
2018-09-22T23:14:42.225Z,10.40
2018-09-22T23:17:09.819Z,10.40
2018-09-22T23:19:37.470Z,10.40
2018-09-22T23:22:05.218Z,10.30
2018-09-22T23:24:38.536Z,10.30
2018-09-22T23:27:06.133Z,10.30
2018-09-22T23:29:33.741Z,10.30
2018-09-22T23:32:01.383Z,10.30
2018-09-22T23:34:29.007Z,10.30
2018-09-22T23:36:56.607Z,10.30
2018-09-22T23:39:24.206Z,10.30
2018-09-22T23:41:51.789Z,10.30
2018-09-22T23:44:19.506Z,10.40
2018-09-22T23:46:47.111Z,10.40
2018-09-22T23:49:14.726Z,10.40
2018-09-22T23:51:42.359Z,10.40
2018-09-22T23:54:09.982Z,10.40
2018-09-22T23:56:37.565Z,10.30
2018-09-22T23:59:05.159Z,10.30
